createdAt,value
2019-01-20T04:00:57.912Z,29.00
2019-01-20T04:01:58.094Z,11.40
2019-01-20T04:02:58.199Z,12.80
2019-01-20T04:03:58.341Z,13.60
2019-01-20T04:04:58.434Z,12.50
2019-01-20T04:05:58.634Z,11.40
2019-01-20T04:06:58.746Z,11.20
2019-01-20T04:07:58.924Z,11.00
2019-01-20T04:08:59.083Z,11.20
2019-01-20T04:09:59.201Z,10.20
2019-01-20T04:10:59.381Z,10.90
2019-01-20T04:11:59.563Z,11.40
2019-01-20T04:12:59.758Z,11.00
2019-01-20T04:13:59.854Z,11.00
2019-01-20T04:14:59.979Z,10.80
2019-01-20T04:16:00.173Z,10.90
2019-01-20T04:17:00.301Z,11.10
2019-01-20T04:18:00.525Z,13.50
2019-01-20T04:19:00.583Z,11.10
2019-01-20T04:20:00.746Z,10.90
2019-01-20T04:21:00.897Z,11.70
2019-01-20T04:22:01.035Z,11.70
2019-01-20T04:23:01.275Z,11.50
2019-01-20T04:24:01.394Z,10.80
2019-01-20T04:25:01.529Z,10.90
2019-01-20T04:26:01.666Z,11.60
2019-01-20T04:27:01.835Z,11.60
2019-01-20T04:28:02.047Z,10.60
2019-01-20T04:29:02.181Z,10.70
2019-01-20T04:30:02.277Z,10.60
2019-01-20T04:31:02.486Z,12.00
2019-01-20T04:32:02.617Z,11.40
2019-01-20T04:33:02.742Z,11.50
2019-01-20T04:34:02.948Z,11.50
2019-01-20T04:35:03.075Z,12.50
2019-01-20T04:36:03.243Z,13.10
2019-01-20T04:37:03.364Z,14.00
2019-01-20T04:38:03.513Z,13.00
2019-01-20T04:39:03.666Z,14.00
2019-01-20T04:40:03.918Z,14.00
2019-01-20T04:41:04.002Z,13.60
2019-01-20T04:42:04.160Z,13.40
2019-01-20T04:43:04.278Z,11.90
2019-01-20T04:44:04.459Z,11.80
2019-01-20T04:45:04.642Z,10.90
2019-01-20T04:46:04.851Z,11.90
2019-01-20T04:47:04.894Z,11.20
2019-01-20T04:48:05.042Z,11.50
2019-01-20T04:49:05.274Z,11.80
2019-01-20T04:50:05.367Z,11.30
2019-01-20T04:51:05.481Z,10.90
2019-01-20T04:52:05.716Z,10.30
2019-01-20T04:53:05.876Z,11.30
2019-01-20T04:54:06.010Z,11.10
2019-01-20T04:55:06.119Z,11.30
2019-01-20T04:56:06.303Z,11.70
2019-01-20T04:57:06.462Z,10.60
2019-01-20T04:58:06.588Z,10.80
2019-01-20T04:59:06.716Z,11.10
2019-01-20T05:00:07.008Z,12.10
2019-01-20T05:01:07.157Z,10.90
2019-01-20T05:02:07.195Z,10.30
2019-01-20T05:03:07.379Z,12.40
2019-01-20T05:04:07.558Z,11.80
2019-01-20T05:05:07.689Z,11.10
2019-01-20T05:06:07.895Z,10.70
2019-01-20T05:07:08.126Z,11.70
2019-01-20T05:08:08.264Z,12.00
2019-01-20T05:09:08.450Z,12.20
2019-01-20T05:10:08.609Z,11.30
2019-01-20T05:11:08.710Z,11.20
2019-01-20T05:12:08.890Z,10.80
2019-01-20T05:13:09.096Z,11.10
2019-01-20T05:14:09.210Z,11.90
2019-01-20T05:15:09.336Z,11.00
2019-01-20T05:16:09.468Z,11.60
2019-01-20T05:17:09.670Z,11.70
2019-01-20T05:18:09.812Z,12.40
2019-01-20T05:19:09.976Z,12.00
2019-01-20T05:20:10.175Z,12.00
2019-01-20T05:21:10.266Z,11.50
2019-01-20T05:22:10.436Z,12.90
2019-01-20T05:23:10.598Z,12.00
2019-01-20T05:24:10.745Z,12.30
2019-01-20T05:25:10.931Z,12.00
2019-01-20T05:26:11.028Z,11.40
2019-01-20T05:27:11.241Z,12.30
2019-01-20T05:28:11.333Z,11.90
2019-01-20T05:29:11.576Z,12.30
2019-01-20T05:30:11.668Z,11.70
2019-01-20T05:31:11.874Z,12.30
2019-01-20T05:32:12.040Z,12.30
2019-01-20T05:33:12.273Z,12.90
2019-01-20T05:34:12.323Z,12.40
2019-01-20T05:35:12.586Z,12.10
2019-01-20T05:36:12.721Z,12.30
2019-01-20T05:37:12.880Z,13.30
2019-01-20T05:38:12.997Z,11.70
2019-01-20T05:39:13.229Z,11.40
2019-01-20T05:40:13.427Z,12.10
2019-01-20T05:41:13.567Z,12.30
2019-01-20T05:42:13.791Z,11.70
2019-01-20T05:43:13.944Z,11.90
2019-01-20T05:44:14.051Z,12.80
2019-01-20T05:45:14.263Z,12.40
2019-01-20T05:46:14.470Z,12.60
2019-01-20T05:47:14.639Z,11.90
2019-01-20T05:48:14.691Z,12.30
2019-01-20T05:49:14.886Z,10.70
2019-01-20T05:50:15.039Z,13.00
2019-01-20T05:51:15.214Z,11.90
2019-01-20T05:52:15.313Z,11.30
2019-01-20T05:53:15.444Z,11.30
2019-01-20T05:54:15.632Z,11.30
2019-01-20T05:55:15.796Z,11.90
2019-01-20T05:56:16.032Z,11.30
2019-01-20T05:57:16.071Z,12.90
2019-01-20T05:58:16.256Z,11.50
2019-01-20T05:59:16.440Z,11.60
2019-01-20T06:00:16.615Z,12.60
2019-01-20T06:01:16.681Z,12.70
2019-01-20T06:02:16.901Z,12.30
2019-01-20T06:03:17.106Z,11.20
2019-01-20T06:04:17.232Z,12.30
2019-01-20T06:05:17.358Z,12.50
2019-01-20T06:06:17.527Z,11.60
2019-01-20T06:07:17.689Z,12.40
2019-01-20T06:08:17.815Z,11.90
2019-01-20T06:09:18.077Z,12.20
2019-01-20T06:10:18.192Z,11.80
2019-01-20T06:11:18.307Z,13.40
2019-01-20T06:12:18.510Z,12.20
2019-01-20T06:13:18.615Z,12.60
2019-01-20T06:14:18.768Z,13.40
2019-01-20T06:15:18.901Z,13.00
2019-01-20T06:16:19.087Z,12.30
2019-01-20T06:17:19.963Z,12.60
2019-01-20T06:18:19.639Z,12.70
2019-01-20T06:19:19.512Z,12.50
2019-01-20T06:20:19.701Z,12.70
2019-01-20T06:21:19.915Z,13.50
2019-01-20T06:22:37.758Z,12.80
2019-01-20T06:23:22.351Z,11.70
2019-01-20T06:24:22.424Z,12.40
2019-01-20T06:25:21.272Z,12.60
2019-01-20T06:26:20.898Z,12.30
2019-01-20T06:27:21.094Z,12.30
2019-01-20T06:28:21.095Z,12.70
2019-01-20T06:29:21.330Z,12.30
2019-01-20T06:30:21.535Z,13.60
2019-01-20T06:31:21.653Z,12.60
2019-01-20T06:32:21.847Z,13.90
2019-01-20T06:33:21.883Z,12.30
2019-01-20T06:34:22.027Z,11.90
2019-01-20T06:35:22.308Z,12.10
2019-01-20T06:36:22.655Z,12.00
2019-01-20T06:37:22.575Z,12.30
2019-01-20T06:38:24.070Z,12.00
2019-01-20T06:39:23.211Z,12.00
2019-01-20T06:40:23.208Z,11.50
2019-01-20T06:41:23.512Z,13.50
2019-01-20T06:42:24.002Z,12.80
2019-01-20T06:43:24.543Z,12.20
2019-01-20T06:44:24.009Z,11.80
2019-01-20T06:45:24.022Z,13.80
2019-01-20T06:46:24.216Z,11.90
2019-01-20T06:47:24.465Z,12.60
2019-01-20T06:48:24.507Z,11.90
2019-01-20T06:49:24.829Z,11.80
2019-01-20T06:50:25.030Z,11.80
2019-01-20T06:51:25.098Z,11.90
2019-01-20T06:52:25.523Z,12.40
2019-01-20T06:53:25.629Z,12.00
2019-01-20T06:54:25.590Z,11.40
2019-01-20T06:55:25.806Z,12.70
2019-01-20T06:56:25.921Z,13.60
2019-01-20T06:57:26.196Z,12.40
2019-01-20T06:58:26.501Z,12.80
2019-01-20T06:59:26.673Z,12.20
2019-01-20T07:00:26.632Z,12.30
2019-01-20T07:01:26.971Z,12.70
2019-01-20T07:02:27.062Z,12.90
2019-01-20T07:03:27.258Z,12.80
2019-01-20T07:04:27.385Z,12.20
2019-01-20T07:05:27.525Z,12.30
2019-01-20T07:06:27.572Z,13.10
2019-01-20T07:07:28.420Z,12.70
2019-01-20T07:08:27.989Z,11.10
2019-01-20T07:09:28.049Z,11.60
2019-01-20T07:10:28.273Z,11.30
2019-01-20T07:11:29.012Z,11.70
2019-01-20T07:12:28.728Z,12.10
2019-01-20T07:13:28.988Z,11.50
2019-01-20T07:14:29.646Z,11.70
2019-01-20T07:15:29.071Z,12.50
2019-01-20T07:16:29.313Z,12.00
2019-01-20T07:17:29.821Z,12.00
2019-01-20T07:18:31.574Z,13.70
2019-01-20T07:19:30.201Z,13.00
2019-01-20T07:20:30.539Z,13.80
2019-01-20T07:21:30.831Z,13.80
2019-01-20T07:22:30.482Z,14.20
2019-01-20T07:23:30.703Z,17.50
2019-01-20T07:24:31.470Z,15.30
2019-01-20T07:25:32.075Z,15.10
2019-01-20T07:26:30.916Z,14.10
2019-01-20T07:27:31.127Z,14.20
2019-01-20T07:28:31.174Z,13.40
2019-01-20T07:29:31.933Z,12.80
2019-01-20T07:30:31.446Z,14.40
2019-01-20T07:31:31.728Z,14.20
2019-01-20T07:32:32.056Z,13.90
2019-01-20T07:33:32.282Z,13.30
2019-01-20T07:34:32.297Z,14.00
2019-01-20T07:35:32.214Z,14.80
2019-01-20T07:36:32.791Z,17.50
2019-01-20T07:37:32.908Z,15.00
2019-01-20T07:38:32.650Z,16.20
2019-01-20T07:39:33.077Z,16.30
2019-01-20T07:40:33.093Z,17.70
2019-01-20T07:41:33.359Z,21.40
2019-01-20T07:42:33.641Z,20.40
2019-01-20T07:43:33.658Z,19.40
2019-01-20T07:44:33.728Z,19.00
2019-01-20T07:45:33.921Z,16.70
2019-01-20T07:46:34.381Z,15.80
2019-01-20T07:47:34.243Z,15.00
2019-01-20T07:48:34.415Z,15.10
2019-01-20T07:49:39.118Z,15.90
2019-01-20T07:52:28.161Z,16.10
2019-01-20T07:53:41.758Z,16.40
2019-01-20T07:54:28.996Z,16.50
2019-01-20T07:55:39.544Z,14.60
2019-01-20T07:56:29.270Z,14.20
2019-01-20T07:57:33.161Z,14.60
2019-01-20T07:58:29.293Z,14.80
2019-01-20T07:59:30.915Z,14.30
2019-01-20T08:02:16.579Z,14.10
2019-01-20T08:03:16.037Z,13.60
2019-01-20T08:04:15.623Z,14.30
2019-01-20T08:05:15.051Z,15.10
2019-01-20T08:06:15.174Z,15.60
2019-01-20T08:07:15.320Z,15.50
2019-01-20T08:08:15.458Z,15.40
2019-01-20T08:09:15.659Z,16.30
2019-01-20T08:10:15.840Z,15.90
2019-01-20T08:15:48.215Z,18.10
2019-01-20T08:16:48.617Z,18.90
2019-01-20T08:17:48.465Z,19.10
2019-01-20T08:18:48.883Z,18.90
2019-01-20T08:19:49.555Z,20.30
2019-01-20T08:20:49.001Z,20.00
2019-01-20T08:21:49.164Z,21.60
2019-01-20T08:22:49.052Z,21.60
2019-01-20T08:29:18.851Z,19.30
2019-01-20T08:30:24.917Z,18.50
2019-01-20T08:31:18.960Z,17.30
2019-01-20T08:32:20.868Z,17.80
2019-01-20T08:33:19.406Z,20.30
2019-01-20T08:34:19.833Z,20.40
2019-01-20T08:35:19.914Z,19.00
2019-01-20T08:36:19.971Z,23.30
2019-01-20T08:37:20.301Z,27.30
2019-01-20T08:38:22.980Z,24.30
2019-01-20T08:41:05.310Z,19.80
2019-01-20T08:42:03.629Z,23.20
2019-01-20T08:43:04.065Z,24.80
2019-01-20T08:44:03.374Z,21.00
2019-01-20T08:45:04.172Z,18.90
2019-01-20T08:46:02.361Z,19.40
2019-01-20T08:47:02.306Z,19.70
2019-01-20T08:48:02.713Z,18.20
2019-01-20T08:49:02.664Z,18.50
2019-01-20T08:50:03.524Z,22.40
2019-01-20T08:51:23.092Z,34.10
2019-01-20T08:52:05.661Z,28.70
2019-01-20T08:53:03.747Z,23.70
2019-01-20T08:54:03.739Z,22.50
2019-01-20T08:55:04.005Z,18.70
2019-01-20T08:56:05.380Z,18.60
2019-01-20T08:57:07.535Z,20.00
2019-01-20T08:58:05.221Z,19.80
2019-01-20T08:59:04.792Z,19.80
2019-01-20T09:00:06.361Z,20.10
2019-01-20T09:01:21.308Z,19.50
2019-01-20T09:02:09.092Z,19.20
2019-01-20T09:03:07.893Z,17.80
2019-01-20T09:04:07.604Z,19.90
2019-01-20T09:05:11.631Z,17.60
2019-01-20T09:06:12.141Z,17.40
2019-01-20T09:07:08.612Z,18.60
2019-01-20T09:10:14.085Z,17.90
2019-01-20T09:11:14.120Z,17.40
2019-01-20T09:12:14.561Z,17.40
2019-01-20T09:13:14.431Z,18.20
2019-01-20T09:14:12.267Z,18.10
2019-01-20T09:15:12.577Z,17.20
2019-01-20T09:16:12.500Z,15.90
2019-01-20T09:17:13.512Z,15.50
2019-01-20T09:18:12.656Z,14.80
2019-01-20T09:19:12.842Z,16.20
2019-01-20T09:20:13.294Z,15.50
2019-01-20T09:21:13.344Z,15.00
2019-01-20T09:22:13.449Z,15.80
2019-01-20T09:23:13.584Z,16.10
2019-01-20T09:24:13.720Z,16.20
2019-01-20T09:25:14.102Z,17.00
2019-01-20T09:26:14.344Z,15.20
2019-01-20T09:33:43.837Z,15.10
2019-01-20T09:34:44.307Z,14.10
2019-01-20T09:35:42.972Z,13.80
2019-01-20T09:36:42.168Z,14.20
2019-01-20T09:37:42.224Z,14.40
2019-01-20T09:38:42.283Z,14.70
2019-01-20T09:39:42.506Z,14.60
2019-01-20T09:40:42.694Z,14.80
2019-01-20T09:41:43.138Z,14.40
2019-01-20T09:42:43.091Z,13.30
2019-01-20T09:43:47.081Z,14.00
2019-01-20T09:44:43.824Z,13.80
2019-01-20T09:45:43.403Z,14.50
2019-01-20T09:46:43.956Z,14.40
2019-01-20T09:47:44.267Z,14.00
2019-01-20T09:48:44.048Z,13.40
2019-01-20T09:49:44.447Z,14.20
2019-01-20T09:50:44.335Z,13.40
2019-01-20T09:51:44.594Z,14.20
2019-01-20T09:52:44.537Z,14.00
2019-01-20T09:53:44.901Z,14.20
2019-01-20T09:54:45.010Z,14.50
2019-01-20T09:55:45.206Z,14.00
2019-01-20T09:56:45.277Z,14.00
2019-01-20T09:57:45.549Z,14.50
2019-01-20T09:58:46.371Z,14.10
2019-01-20T09:59:45.834Z,13.30
2019-01-20T10:00:46.062Z,12.70
2019-01-20T10:01:46.419Z,13.70
2019-01-20T10:02:46.515Z,12.70
2019-01-20T10:03:46.905Z,12.90
2019-01-20T10:04:46.709Z,12.30
2019-01-20T10:05:46.870Z,13.90
2019-01-20T10:06:48.152Z,13.80
2019-01-20T10:07:47.687Z,13.20
2019-01-20T10:08:47.731Z,13.30
2019-01-20T10:09:47.673Z,12.10
2019-01-20T10:10:47.918Z,12.10
2019-01-20T10:11:48.026Z,13.20
2019-01-20T10:12:48.412Z,12.30
2019-01-20T10:13:54.789Z,12.80
2019-01-20T10:14:48.742Z,12.20
2019-01-20T10:15:52.140Z,12.40
2019-01-20T10:16:49.840Z,12.60
2019-01-20T10:17:48.816Z,12.50
2019-01-20T10:18:48.988Z,12.40
2019-01-20T10:19:49.156Z,12.10
2019-01-20T10:20:49.198Z,12.20
2019-01-20T10:21:49.446Z,12.50
2019-01-20T10:22:49.656Z,12.70
2019-01-20T10:23:51.295Z,12.60
2019-01-20T10:24:50.076Z,12.30
2019-01-20T10:25:51.996Z,13.10
2019-01-20T10:26:50.544Z,13.00
2019-01-20T10:27:50.543Z,12.80
2019-01-20T10:28:50.708Z,13.10
2019-01-20T10:29:50.858Z,13.60
2019-01-20T10:31:05.905Z,12.90
2019-01-20T10:31:54.681Z,13.50
2019-01-20T10:32:54.971Z,12.50
2019-01-20T10:33:53.648Z,13.10
2019-01-20T10:34:54.059Z,12.50
2019-01-20T10:35:54.390Z,12.90
2019-01-20T10:36:52.552Z,13.00
2019-01-20T10:37:52.288Z,13.20
2019-01-20T10:38:52.518Z,13.10
2019-01-20T10:39:52.668Z,14.00
2019-01-20T10:40:52.856Z,12.80
2019-01-20T10:41:53.510Z,12.40
2019-01-20T10:42:53.110Z,12.80
2019-01-20T10:43:53.307Z,13.00
2019-01-20T10:44:53.378Z,12.80
2019-01-20T10:47:37.900Z,13.90
2019-01-20T10:49:45.829Z,12.70
2019-01-20T10:51:36.944Z,13.40
2019-01-20T10:52:36.944Z,13.40
2019-01-20T10:53:37.274Z,13.20
2019-01-20T10:54:37.418Z,12.50
2019-01-20T10:55:37.535Z,12.80
2019-01-20T10:56:37.717Z,13.30
2019-01-20T10:57:37.942Z,12.90
2019-01-20T10:58:38.049Z,13.30
2019-01-20T10:59:38.202Z,13.00
2019-01-20T11:00:38.674Z,13.80
2019-01-20T11:01:38.549Z,12.60
2019-01-20T11:02:38.754Z,12.80
2019-01-20T11:03:38.947Z,12.30
2019-01-20T11:04:39.037Z,13.30
2019-01-20T11:05:39.173Z,13.30
2019-01-20T11:06:39.407Z,13.70
2019-01-20T11:07:39.501Z,14.00
2019-01-20T11:08:39.772Z,12.90
2019-01-20T11:09:39.885Z,12.60
2019-01-20T11:10:40.260Z,13.20
2019-01-20T11:11:40.231Z,12.20
2019-01-20T11:12:41.039Z,12.70
2019-01-20T11:13:40.537Z,12.40
2019-01-20T11:14:40.694Z,12.70
2019-01-20T11:15:40.855Z,13.10
2019-01-20T11:16:41.009Z,12.20
2019-01-20T11:17:41.158Z,12.80
2019-01-20T11:18:41.389Z,12.60
2019-01-20T11:19:41.588Z,12.60
2019-01-20T11:20:41.686Z,12.00
2019-01-20T11:21:41.882Z,12.20
2019-01-20T11:22:42.061Z,12.70
2019-01-20T11:23:42.283Z,12.50
2019-01-20T11:24:42.357Z,11.40
2019-01-20T11:25:42.558Z,19.10
2019-01-20T11:26:42.782Z,12.50
2019-01-20T11:27:42.908Z,11.90
2019-01-20T11:28:43.220Z,12.10
2019-01-20T11:29:43.335Z,11.80
2019-01-20T11:30:43.450Z,11.40
2019-01-20T11:31:43.620Z,11.40
2019-01-20T11:32:47.412Z,10.50
2019-01-20T11:33:44.079Z,10.80
2019-01-20T11:34:44.219Z,11.30
2019-01-20T11:35:44.365Z,11.00
2019-01-20T11:36:44.514Z,10.90
2019-01-20T11:37:44.882Z,11.10
2019-01-20T11:38:45.202Z,12.90
2019-01-20T11:39:45.163Z,11.30
2019-01-20T11:40:45.132Z,10.50
2019-01-20T11:41:45.253Z,11.10
2019-01-20T11:42:45.551Z,11.10
2019-01-20T11:43:45.700Z,10.30
2019-01-20T11:44:45.786Z,14.10
2019-01-20T11:45:46.081Z,10.40
2019-01-20T11:46:46.177Z,11.10
2019-01-20T11:47:46.357Z,12.20
2019-01-20T11:48:46.518Z,12.10
2019-01-20T11:49:46.695Z,10.90
2019-01-20T11:50:46.863Z,10.70
2019-01-20T11:51:47.078Z,10.40
2019-01-20T11:52:47.267Z,10.20
2019-01-20T11:53:47.441Z,10.30
2019-01-20T11:54:47.543Z,13.60
2019-01-20T11:55:47.682Z,10.20
2019-01-20T11:56:47.819Z,10.00
2019-01-20T11:57:48.043Z,10.60
2019-01-20T11:58:48.154Z,10.90
2019-01-20T11:59:48.307Z,10.90
2019-01-20T12:00:48.457Z,10.30
2019-01-20T12:01:48.666Z,10.20
2019-01-20T12:02:48.888Z,11.30
2019-01-20T12:03:49.014Z,10.40
2019-01-20T12:04:49.284Z,9.80
2019-01-20T12:05:49.341Z,9.70
2019-01-20T12:06:49.578Z,9.90
2019-01-20T12:07:49.806Z,10.10
2019-01-20T12:08:49.904Z,9.70
2019-01-20T12:09:50.133Z,9.90
2019-01-20T12:10:50.229Z,10.00
2019-01-20T12:11:50.427Z,10.20
2019-01-20T12:12:50.660Z,10.20
2019-01-20T12:13:50.796Z,10.30
2019-01-20T12:14:51.020Z,10.00
2019-01-20T12:15:51.129Z,10.30
2019-01-20T12:16:51.330Z,10.30
2019-01-20T12:17:51.517Z,9.50
2019-01-20T12:18:51.725Z,9.80
2019-01-20T12:19:51.840Z,10.20
2019-01-20T12:20:51.991Z,10.20
2019-01-20T12:21:52.170Z,10.10
2019-01-20T12:22:52.428Z,9.60
2019-01-20T12:23:52.605Z,10.00
2019-01-20T12:24:52.729Z,10.40
2019-01-20T12:25:52.927Z,10.00
2019-01-20T12:26:53.080Z,9.90
2019-01-20T12:27:53.176Z,9.30
2019-01-20T12:28:53.376Z,9.90
2019-01-20T12:29:53.576Z,9.40
2019-01-20T12:30:53.795Z,10.00
2019-01-20T12:31:53.912Z,9.30
2019-01-20T12:32:54.061Z,8.80
2019-01-20T12:34:05.112Z,9.50
2019-01-20T12:35:55.100Z,9.80
2019-01-20T12:36:54.766Z,9.70
2019-01-20T12:37:54.904Z,10.00
2019-01-20T12:38:55.079Z,9.80
2019-01-20T12:39:55.271Z,9.60
2019-01-20T12:40:55.385Z,9.80
2019-01-20T12:41:55.705Z,9.40
2019-01-20T12:42:55.839Z,9.80
2019-01-20T12:43:55.976Z,9.30
2019-01-20T12:44:56.181Z,9.70
2019-01-20T12:45:56.341Z,9.80
2019-01-20T12:46:56.463Z,9.50
2019-01-20T12:47:56.710Z,9.80
2019-01-20T12:48:56.881Z,9.90
2019-01-20T12:49:56.997Z,10.50
2019-01-20T12:50:57.275Z,10.10
2019-01-20T12:51:57.429Z,10.00
2019-01-20T12:52:57.570Z,9.70
2019-01-20T12:53:57.711Z,9.70
2019-01-20T12:54:57.890Z,10.80
2019-01-20T12:55:58.094Z,10.80
2019-01-20T12:56:58.338Z,9.60
2019-01-20T12:57:58.474Z,9.60
2019-01-20T12:58:58.649Z,10.20
2019-01-20T12:59:58.757Z,9.90
2019-01-20T13:00:58.969Z,10.30
2019-01-20T13:01:59.189Z,9.90
2019-01-20T13:02:59.273Z,9.80
2019-01-20T13:03:59.553Z,10.10
2019-01-20T13:04:59.680Z,9.70
2019-01-20T13:05:59.815Z,10.40
2019-01-20T13:07:00.029Z,9.60
2019-01-20T13:08:00.195Z,10.30
2019-01-20T13:09:00.422Z,10.40
2019-01-20T13:10:00.475Z,10.70
2019-01-20T13:11:00.649Z,10.30
2019-01-20T13:12:00.873Z,10.40
2019-01-20T13:13:00.987Z,11.00
2019-01-20T13:14:01.154Z,10.70
2019-01-20T13:15:01.358Z,10.30
2019-01-20T13:16:01.522Z,10.70
2019-01-20T13:17:01.719Z,10.50
2019-01-20T13:18:01.939Z,10.50
2019-01-20T13:19:02.096Z,10.80
2019-01-20T13:20:02.281Z,10.80
2019-01-20T13:21:02.447Z,10.90
2019-01-20T13:22:02.598Z,10.30
2019-01-20T13:23:02.800Z,11.40
2019-01-20T13:24:02.904Z,9.80
2019-01-20T13:25:03.148Z,11.50
2019-01-20T13:26:03.291Z,9.60
2019-01-20T13:27:03.441Z,9.50
2019-01-20T13:28:03.608Z,10.00
2019-01-20T13:29:03.704Z,9.90
2019-01-20T13:30:03.929Z,9.90
2019-01-20T13:31:04.202Z,9.60
2019-01-20T13:32:04.438Z,10.00
2019-01-20T13:33:04.555Z,9.80
2019-01-20T13:34:04.650Z,9.70
2019-01-20T13:35:04.853Z,10.20
2019-01-20T13:36:07.261Z,9.50
2019-01-20T13:37:05.255Z,9.40
2019-01-20T13:38:05.434Z,10.10
2019-01-20T13:39:05.553Z,10.60
2019-01-20T13:40:05.811Z,10.60
2019-01-20T13:41:06.006Z,10.00
2019-01-20T13:42:06.153Z,9.30
2019-01-20T13:43:06.418Z,8.40
2019-01-20T13:44:06.531Z,8.80
2019-01-20T13:45:06.754Z,9.00
2019-01-20T13:46:06.896Z,8.70
2019-01-20T13:47:07.053Z,8.50
2019-01-20T13:48:07.264Z,9.00
2019-01-20T13:49:07.405Z,8.30
2019-01-20T13:50:07.542Z,8.80
2019-01-20T13:51:07.700Z,9.50
2019-01-20T13:52:08.016Z,9.00
2019-01-20T13:53:08.134Z,8.20
2019-01-20T13:54:08.342Z,7.90
2019-01-20T13:55:08.565Z,8.10
2019-01-20T13:56:08.681Z,9.50
2019-01-20T13:57:08.876Z,7.40
2019-01-20T13:58:09.162Z,7.50
2019-01-20T13:59:09.116Z,7.30
2019-01-20T14:00:09.327Z,7.30
2019-01-20T14:01:09.484Z,7.30
2019-01-20T14:02:09.659Z,7.60
2019-01-20T14:03:09.826Z,7.20
2019-01-20T14:04:10.042Z,7.50
2019-01-20T14:05:10.197Z,7.40
2019-01-20T14:06:10.387Z,7.20
2019-01-20T14:07:10.474Z,7.00
2019-01-20T14:08:10.665Z,7.00
2019-01-20T14:09:10.888Z,9.00
2019-01-20T14:10:11.235Z,6.80
2019-01-20T14:11:11.210Z,6.80
2019-01-20T14:12:11.398Z,6.80
2019-01-20T14:13:11.559Z,7.40
2019-01-20T14:14:11.752Z,7.50
2019-01-20T14:17:36.815Z,7.50
2019-01-20T14:18:37.038Z,6.80
2019-01-20T14:21:39.881Z,7.10
2019-01-20T14:22:39.759Z,8.00
2019-01-20T14:23:39.291Z,7.90
2019-01-20T14:24:52.784Z,8.00
2019-01-20T14:26:45.840Z,12.80
2019-01-20T14:27:39.860Z,7.30
2019-01-20T14:30:40.804Z,7.50
2019-01-20T14:31:42.435Z,7.40
2019-01-20T14:32:41.637Z,7.60
2019-01-20T14:33:42.976Z,7.40
2019-01-20T14:34:42.469Z,7.60
2019-01-20T14:35:42.828Z,7.70
2019-01-20T14:36:40.699Z,7.70
2019-01-20T14:37:39.746Z,7.90
2019-01-20T14:38:39.808Z,7.70
2019-01-20T14:39:39.894Z,7.50
2019-01-20T14:40:40.152Z,7.70
2019-01-20T14:41:40.296Z,8.10
2019-01-20T14:42:40.417Z,7.60
2019-01-20T14:43:40.548Z,8.80
2019-01-20T14:44:40.735Z,8.10
2019-01-20T14:45:40.884Z,8.60
2019-01-20T14:46:41.134Z,8.40
2019-01-20T14:47:41.313Z,8.30
2019-01-20T14:48:41.442Z,7.90
2019-01-20T14:49:41.655Z,8.30
2019-01-20T14:50:41.777Z,8.50
2019-01-20T14:51:41.999Z,8.80
2019-01-20T14:52:42.111Z,8.60
2019-01-20T14:53:42.243Z,8.60
2019-01-20T14:54:42.436Z,8.20
2019-01-20T14:55:42.640Z,8.90
2019-01-20T14:56:42.769Z,8.70
2019-01-20T14:57:42.899Z,8.30
2019-01-20T14:58:43.122Z,8.50
2019-01-20T14:59:43.294Z,8.40
2019-01-20T15:00:43.556Z,8.20
2019-01-20T15:01:43.657Z,8.90
2019-01-20T15:02:43.820Z,8.50
2019-01-20T15:03:44.026Z,10.40
2019-01-20T15:04:44.138Z,10.00
2019-01-20T15:05:44.432Z,9.00
2019-01-20T15:06:44.497Z,8.90
2019-01-20T15:07:44.681Z,8.10
2019-01-20T15:08:44.878Z,8.60
2019-01-20T15:09:45.037Z,8.30
2019-01-20T15:10:45.204Z,8.70
2019-01-20T15:11:46.391Z,9.20
2019-01-20T15:12:45.564Z,8.60
2019-01-20T15:13:45.763Z,8.80
2019-01-20T15:14:45.919Z,9.00
2019-01-20T15:15:46.044Z,9.40
2019-01-20T15:16:46.235Z,9.70
2019-01-20T15:17:46.422Z,8.70
2019-01-20T15:18:46.557Z,10.30
2019-01-20T15:19:46.739Z,9.20
2019-01-20T15:20:46.983Z,9.30
2019-01-20T15:21:47.011Z,9.70
2019-01-20T15:22:47.286Z,9.90
2019-01-20T15:23:47.383Z,12.50
2019-01-20T15:24:47.562Z,13.70
2019-01-20T15:25:47.701Z,30.20
2019-01-20T15:26:47.901Z,21.40
2019-01-20T15:27:48.055Z,19.70
2019-01-20T15:28:48.236Z,17.00
2019-01-20T15:29:48.387Z,16.50
2019-01-20T15:30:48.545Z,17.00
2019-01-20T15:31:48.706Z,14.00
2019-01-20T15:32:48.925Z,12.80
2019-01-20T15:33:49.052Z,14.10
2019-01-20T15:34:49.208Z,25.10
2019-01-20T15:35:49.349Z,23.60
2019-01-20T15:36:49.511Z,26.40
2019-01-20T15:37:49.734Z,22.90
2019-01-20T15:38:49.876Z,32.40
2019-01-20T15:39:50.044Z,30.40
2019-01-20T15:40:50.140Z,28.80
2019-01-20T15:41:50.441Z,21.40
2019-01-20T15:42:50.477Z,24.90
2019-01-20T15:43:50.696Z,23.00
2019-01-20T15:44:50.812Z,21.30
2019-01-20T15:45:50.986Z,19.60
2019-01-20T15:46:51.207Z,18.50
2019-01-20T15:47:52.563Z,13.90
2019-01-20T15:48:51.493Z,15.00
2019-01-20T15:49:51.719Z,13.20
2019-01-20T15:50:51.821Z,12.20
2019-01-20T15:51:52.006Z,11.10
2019-01-20T15:52:52.232Z,10.60
2019-01-20T15:53:52.359Z,10.60
2019-01-20T15:54:52.455Z,10.60
2019-01-20T15:55:52.607Z,10.90
2019-01-20T15:56:52.770Z,10.80
2019-01-20T15:57:52.981Z,10.70
2019-01-20T15:58:53.020Z,10.40
2019-01-20T15:59:53.213Z,11.50
2019-01-20T16:00:53.395Z,11.30
2019-01-20T16:01:53.629Z,12.30
2019-01-20T16:02:53.743Z,12.20
2019-01-20T16:03:53.945Z,12.00
2019-01-20T16:04:54.111Z,12.50
2019-01-20T16:05:54.296Z,13.60
2019-01-20T16:06:54.418Z,13.10
2019-01-20T16:07:54.575Z,12.40
2019-01-20T16:08:54.705Z,11.90
2019-01-20T16:09:54.938Z,12.70
2019-01-20T16:10:55.021Z,12.20
2019-01-20T16:11:55.156Z,12.00
2019-01-20T16:12:55.411Z,11.60
2019-01-20T16:13:56.405Z,12.80
2019-01-20T16:14:55.796Z,13.70
2019-01-20T16:15:55.923Z,12.90
2019-01-20T16:16:56.134Z,17.70
2019-01-20T16:17:56.230Z,20.50
2019-01-20T16:18:56.418Z,21.00
2019-01-20T16:19:56.553Z,21.90
2019-01-20T16:20:56.850Z,23.60
2019-01-20T16:21:57.004Z,23.30
2019-01-20T16:22:57.097Z,23.00
2019-01-20T16:23:57.312Z,26.10
2019-01-20T16:24:57.493Z,27.80
2019-01-20T16:25:57.558Z,26.00
2019-01-20T16:27:01.011Z,22.80
2019-01-20T16:27:57.897Z,17.80
2019-01-20T16:28:58.480Z,16.00
2019-01-20T16:29:58.249Z,16.40
2019-01-20T16:30:58.449Z,17.80
2019-01-20T16:31:58.634Z,16.50
2019-01-20T16:32:58.710Z,17.40
2019-01-20T16:33:58.881Z,16.40
2019-01-20T16:34:59.080Z,18.40
2019-01-20T16:35:59.266Z,19.50
2019-01-20T16:36:59.412Z,20.80
2019-01-20T16:37:59.592Z,20.20
2019-01-20T16:38:59.750Z,19.70
2019-01-20T16:39:59.875Z,23.00
2019-01-20T16:41:00.034Z,21.60
2019-01-20T16:42:00.165Z,21.70
2019-01-20T16:43:00.405Z,17.50
2019-01-20T16:44:00.510Z,16.20
2019-01-20T16:45:00.674Z,16.10
2019-01-20T16:46:00.818Z,15.80
2019-01-20T16:47:01.026Z,15.80
2019-01-20T16:48:01.237Z,14.80
2019-01-20T16:49:01.424Z,16.80
2019-01-20T16:50:01.586Z,17.60
2019-01-20T16:51:01.624Z,20.10
2019-01-20T16:52:01.759Z,17.50
2019-01-20T16:53:02.052Z,18.90
2019-01-20T16:54:02.167Z,15.40
2019-01-20T16:55:02.394Z,15.30
2019-01-20T16:56:02.475Z,21.60
2019-01-20T16:57:02.647Z,16.20
2019-01-20T16:58:02.804Z,15.30
2019-01-20T16:59:03.017Z,13.30
2019-01-20T17:00:03.226Z,16.90
2019-01-20T17:01:03.436Z,18.80
2019-01-20T17:02:03.506Z,16.60
2019-01-20T17:03:03.647Z,13.90
2019-01-20T17:04:03.824Z,15.50
2019-01-20T17:05:03.967Z,16.80
2019-01-20T17:06:04.128Z,25.10
2019-01-20T17:07:04.320Z,21.40
2019-01-20T17:08:04.438Z,18.90
2019-01-20T17:09:04.573Z,17.70
2019-01-20T17:10:04.803Z,18.80
2019-01-20T17:11:04.976Z,16.40
2019-01-20T17:12:05.058Z,15.80
2019-01-20T17:13:05.243Z,15.60
2019-01-20T17:14:05.416Z,14.60
2019-01-20T17:15:05.548Z,16.30
2019-01-20T17:16:05.657Z,16.90
2019-01-20T17:17:05.808Z,17.40
2019-01-20T17:18:06.110Z,16.40
2019-01-20T17:19:06.195Z,16.00
2019-01-20T17:20:06.343Z,19.10
2019-01-20T17:21:06.559Z,17.90
2019-01-20T17:22:06.651Z,17.80
2019-01-20T17:23:06.781Z,28.40
2019-01-20T17:24:07.023Z,24.50
2019-01-20T17:25:07.159Z,24.70
2019-01-20T17:26:07.395Z,23.20
2019-01-20T17:27:07.543Z,20.80
2019-01-20T17:28:07.720Z,20.30
2019-01-20T17:29:07.863Z,15.60
2019-01-20T17:30:07.976Z,15.80
2019-01-20T17:31:08.213Z,14.50
2019-01-20T17:32:08.317Z,14.90
2019-01-20T17:33:08.529Z,14.70
2019-01-20T17:34:08.647Z,15.70
2019-01-20T17:35:08.726Z,16.60
2019-01-20T17:36:09.017Z,18.20